Japan — V7JR9 — position and weather

sailwx.info

Track history (hours):
 
Tides and Currents Weather Stations Pressure Air Temp Water Temp Dewpoint Dewpoint Depression Visibility Wind Speed Wind Dir Waves Ship Positions

Japan

Last reported at 2017-Oct-09 03:16 UTC. Time now 2017-Oct-18 12:53 UTC.
Position N 25°15' W 079°33'.
Warning: this ship's position is 9 days out of date.

Length 276 m; draft 7.4 m.

Type: Ship. MMSI: 538006095.

Date/timePositionNaut miles runAvg speedWind from/ knotsBaromVisibWave heightAir tempDewpointWater temp
2017-Oct-09 03:16N 25°15' W 079°33'1010.5
2017-Oct-09 02:20N 25°24' W 079°32'710.2
2017-Oct-09 01:39N 25°31' W 079°30'6 9.6
2017-Oct-09 01:05N 25°37' W 079°29'1 9.3
2017-Oct-09 01:00N 25°37' W 079°29'5 9.3
2017-Oct-09 00:30N 25°42' W 079°28'7 9.0
2017-Oct-08 23:43N 25°49' W 079°27'2 8.9
2017-Oct-08 23:29N 25°51' W 079°27'4 8.9
2017-Oct-08 23:00N 25°55' W 079°26'4 8.9
2017-Oct-08 22:30N 25°60' W 079°25'5 9.8
2017-Oct-08 22:00N 26°03' W 079°21'510.5
2017-Oct-08 21:30N 26°07' W 079°17'710.7
2017-Oct-08 20:50N 26°12' W 079°11'411.3
2017-Oct-08 20:30N 26°14' W 079°08'  
Track history (hours):
 
Tides and Currents Weather Stations Pressure Air Temp Water Temp Dewpoint Dewpoint Depression Visibility Wind Speed Wind Dir Waves Ship Positions

Japan

Last reported at 2017-Oct-09 03:16 UTC. Time now 2017-Oct-18 12:53 UTC.
Position N 25°15' W 079°33'.
Warning: this ship's position is 9 days out of date.

Length 276 m; draft 7.4 m.

Type: Ship. MMSI: 538006095.

Date/timePositionNaut miles runAvg speedWind from/ knotsBaromVisibWave heightAir tempDewpointWater temp
2017-Oct-09 03:16N 25°15' W 079°33'1010.5
2017-Oct-09 02:20N 25°24' W 079°32'710.2
2017-Oct-09 01:39N 25°31' W 079°30'6 9.6
2017-Oct-09 01:05N 25°37' W 079°29'1 9.3
2017-Oct-09 01:00N 25°37' W 079°29'5 9.3
2017-Oct-09 00:30N 25°42' W 079°28'7 9.0
2017-Oct-08 23:43N 25°49' W 079°27'2 8.9
2017-Oct-08 23:29N 25°51' W 079°27'4 8.9
2017-Oct-08 23:00N 25°55' W 079°26'4 8.9
2017-Oct-08 22:30N 25°60' W 079°25'5 9.8
2017-Oct-08 22:00N 26°03' W 079°21'510.5
2017-Oct-08 21:30N 26°07' W 079°17'710.7
2017-Oct-08 20:50N 26°12' W 079°11'411.3
2017-Oct-08 20:30N 26°14' W 079°08'  

Dump ship's entire track history